sensor_id;sensor_type;location;lat;lon;timestamp;P1;durP1;ratioP1;P2;durP2;ratioP2
13708;SDS011;54933;51.908;7.730;2022-11-20T00:01:04;2.50;;;1.30;;
13708;SDS011;54933;51.908;7.730;2022-11-20T00:03:34;1.63;;;1.53;;
13708;SDS011;54933;51.908;7.730;2022-11-20T00:06:03;1.60;;;1.50;;
13708;SDS011;54933;51.908;7.730;2022-11-20T00:08:30;1.50;;;1.40;;
13708;SDS011;54933;51.908;7.730;2022-11-20T00:10:56;1.43;;;1.30;;
13708;SDS011;54933;51.908;7.730;2022-11-20T00:13:21;1.60;;;1.50;;
13708;SDS011;54933;51.908;7.730;2022-11-20T00:15:47;1.47;;;1.37;;
13708;SDS011;54933;51.908;7.730;2022-11-20T00:18:12;1.40;;;1.30;;
13708;SDS011;54933;51.908;7.730;2022-11-20T00:20:38;1.50;;;1.40;;
13708;SDS011;54933;51.908;7.730;2022-11-20T00:23:03;1.97;;;1.47;;
13708;SDS011;54933;51.908;7.730;2022-11-20T00:25:29;1.63;;;1.53;;
13708;SDS011;54933;51.908;7.730;2022-11-20T00:27:54;2.00;;;1.90;;
13708;SDS011;54933;51.908;7.730;2022-11-20T00:30:19;1.80;;;1.70;;
13708;SDS011;54933;51.908;7.730;2022-11-20T00:32:44;1.53;;;1.53;;
13708;SDS011;54933;51.908;7.730;2022-11-20T00:35:10;1.93;;;1.43;;
13708;SDS011;54933;51.908;7.730;2022-11-20T00:37:35;1.67;;;1.57;;
13708;SDS011;54933;51.908;7.730;2022-11-20T00:40:00;1.60;;;1.50;;
13708;SDS011;54933;51.908;7.730;2022-11-20T00:42:25;1.40;;;1.40;;
13708;SDS011;54933;51.908;7.730;2022-11-20T00:44:51;2.00;;;1.30;;
13708;SDS011;54933;51.908;7.730;2022-11-20T00:47:16;1.57;;;1.47;;
13708;SDS011;54933;51.908;7.730;2022-11-20T00:49:41;1.60;;;1.50;;
13708;SDS011;54933;51.908;7.730;2022-11-20T00:52:07;1.60;;;1.50;;
13708;SDS011;54933;51.908;7.730;2022-11-20T00:54:32;1.40;;;1.40;;
13708;SDS011;54933;51.908;7.730;2022-11-20T00:56:57;1.47;;;1.37;;
13708;SDS011;54933;51.908;7.730;2022-11-20T00:59:22;1.80;;;1.70;;
13708;SDS011;54933;51.908;7.730;2022-11-20T01:01:48;1.30;;;1.20;;
13708;SDS011;54933;51.908;7.730;2022-11-20T01:04:13;1.50;;;1.40;;
13708;SDS011;54933;51.908;7.730;2022-11-20T01:06:39;2.03;;;1.50;;
13708;SDS011;54933;51.908;7.730;2022-11-20T01:09:10;1.73;;;1.60;;
13708;SDS011;54933;51.908;7.730;2022-11-20T01:11:38;1.63;;;1.53;;
13708;SDS011;54933;51.908;7.730;2022-11-20T01:14:07;2.17;;;1.57;;
13708;SDS011;54933;51.908;7.730;2022-11-20T01:16:36;2.00;;;1.80;;
13708;SDS011;54933;51.908;7.730;2022-11-20T01:19:04;1.50;;;1.40;;
13708;SDS011;54933;51.908;7.730;2022-11-20T01:21:34;1.80;;;1.70;;
13708;SDS011;54933;51.908;7.730;2022-11-20T01:24:02;1.30;;;1.30;;
13708;SDS011;54933;51.908;7.730;2022-11-20T01:26:30;1.40;;;1.40;;
13708;SDS011;54933;51.908;7.730;2022-11-20T01:28:56;3.40;;;1.70;;
13708;SDS011;54933;51.908;7.730;2022-11-20T01:31:41;1.60;;;1.50;;
13708;SDS011;54933;51.908;7.730;2022-11-20T01:34:09;2.53;;;1.70;;
13708;SDS011;54933;51.908;7.730;2022-11-20T01:36:38;1.90;;;1.70;;
13708;SDS011;54933;51.908;7.730;2022-11-20T01:39:05;1.73;;;1.63;;
13708;SDS011;54933;51.908;7.730;2022-11-20T01:41:33;1.50;;;1.40;;
13708;SDS011;54933;51.908;7.730;2022-11-20T01:44:41;1.60;;;1.47;;
13708;SDS011;54933;51.908;7.730;2022-11-20T01:47:14;1.83;;;1.37;;
13708;SDS011;54933;51.908;7.730;2022-11-20T01:49:43;1.70;;;1.60;;
13708;SDS011;54933;51.908;7.730;2022-11-20T01:52:37;1.20;;;1.17;;
13708;SDS011;54933;51.908;7.730;2022-11-20T01:55:12;1.47;;;1.40;;
13708;SDS011;54933;51.908;7.730;2022-11-20T01:57:42;1.60;;;1.50;;
13708;SDS011;54933;51.908;7.730;2022-11-20T02:00:10;1.80;;;1.70;;
13708;SDS011;54933;51.908;7.730;2022-11-20T02:02:39;1.50;;;1.40;;
13708;SDS011;54933;51.908;7.730;2022-11-20T02:05:10;1.20;;;1.20;;
13708;SDS011;54933;51.908;7.730;2022-11-20T02:07:58;1.67;;;1.57;;
13708;SDS011;54933;51.908;7.730;2022-11-20T02:10:26;1.70;;;1.60;;
13708;SDS011;54933;51.908;7.730;2022-11-20T02:12:53;1.87;;;1.50;;
13708;SDS011;54933;51.908;7.730;2022-11-20T02:15:37;1.80;;;1.70;;
13708;SDS011;54933;51.908;7.730;2022-11-20T02:18:02;1.70;;;1.60;;
13708;SDS011;54933;51.908;7.730;2022-11-20T02:20:29;1.83;;;1.53;;
13708;SDS011;54933;51.908;7.730;2022-11-20T02:25:23;1.63;;;1.53;;
13708;SDS011;54933;51.908;7.730;2022-11-20T02:27:51;1.40;;;1.30;;
13708;SDS011;54933;51.908;7.730;2022-11-20T02:30:16;1.53;;;1.43;;
13708;SDS011;54933;51.908;7.730;2022-11-20T02:32:42;1.50;;;1.40;;
13708;SDS011;54933;51.908;7.730;2022-11-20T02:37:47;1.80;;;1.70;;
13708;SDS011;54933;51.908;7.730;2022-11-20T02:40:15;1.70;;;1.60;;
13708;SDS011;54933;51.908;7.730;2022-11-20T02:42:40;1.50;;;1.40;;
13708;SDS011;54933;51.908;7.730;2022-11-20T02:45:06;1.60;;;1.50;;
13708;SDS011;54933;51.908;7.730;2022-11-20T02:47:32;1.73;;;1.63;;
13708;SDS011;54933;51.908;7.730;2022-11-20T02:49:57;1.57;;;1.47;;
13708;SDS011;54933;51.908;7.730;2022-11-20T02:52:23;1.60;;;1.50;;
13708;SDS011;54933;51.908;7.730;2022-11-20T02:54:48;1.60;;;1.50;;
13708;SDS011;54933;51.908;7.730;2022-11-20T02:57:14;1.60;;;1.50;;
13708;SDS011;54933;51.908;7.730;2022-11-20T02:59:39;1.70;;;1.60;;
13708;SDS011;54933;51.908;7.730;2022-11-20T03:02:04;1.90;;;1.80;;
13708;SDS011;54933;51.908;7.730;2022-11-20T03:04:30;1.77;;;1.67;;
13708;SDS011;54933;51.908;7.730;2022-11-20T03:06:55;1.43;;;1.33;;
13708;SDS011;54933;51.908;7.730;2022-11-20T03:09:20;2.03;;;1.83;;
13708;SDS011;54933;51.908;7.730;2022-11-20T03:11:46;1.67;;;1.53;;
13708;SDS011;54933;51.908;7.730;2022-11-20T03:14:11;2.93;;;1.87;;
13708;SDS011;54933;51.908;7.730;2022-11-20T03:16:37;1.57;;;1.47;;
13708;SDS011;54933;51.908;7.730;2022-11-20T03:19:02;1.70;;;1.60;;
13708;SDS011;54933;51.908;7.730;2022-11-20T03:21:27;1.87;;;1.77;;
13708;SDS011;54933;51.908;7.730;2022-11-20T03:23:53;2.27;;;2.07;;
13708;SDS011;54933;51.908;7.730;2022-11-20T03:26:20;1.50;;;1.40;;
13708;SDS011;54933;51.908;7.730;2022-11-20T03:28:48;1.53;;;1.43;;
13708;SDS011;54933;51.908;7.730;2022-11-20T03:31:18;1.60;;;1.50;;
13708;SDS011;54933;51.908;7.730;2022-11-20T03:33:45;1.67;;;1.57;;
13708;SDS011;54933;51.908;7.730;2022-11-20T03:36:12;2.07;;;1.53;;
13708;SDS011;54933;51.908;7.730;2022-11-20T03:38:39;1.73;;;1.53;;
13708;SDS011;54933;51.908;7.730;2022-11-20T03:41:08;1.73;;;1.63;;
13708;SDS011;54933;51.908;7.730;2022-11-20T03:43:40;1.87;;;1.70;;
13708;SDS011;54933;51.908;7.730;2022-11-20T03:46:06;1.73;;;1.63;;
13708;SDS011;54933;51.908;7.730;2022-11-20T03:48:32;1.60;;;1.50;;
13708;SDS011;54933;51.908;7.730;2022-11-20T03:51:16;4.10;;;1.90;;
13708;SDS011;54933;51.908;7.730;2022-11-20T03:53:44;1.70;;;1.60;;
13708;SDS011;54933;51.908;7.730;2022-11-20T03:56:12;2.07;;;1.57;;
13708;SDS011;54933;51.908;7.730;2022-11-20T03:58:40;1.63;;;1.53;;
13708;SDS011;54933;51.908;7.730;2022-11-20T04:01:06;1.90;;;1.77;;
13708;SDS011;54933;51.908;7.730;2022-11-20T04:03:42;1.63;;;1.53;;
13708;SDS011;54933;51.908;7.730;2022-11-20T04:06:18;1.70;;;1.60;;
13708;SDS011;54933;51.908;7.730;2022-11-20T04:08:46;1.80;;;1.70;;
13708;SDS011;54933;51.908;7.730;2022-11-20T04:11:22;1.70;;;1.60;;
13708;SDS011;54933;51.908;7.730;2022-11-20T04:13:49;1.60;;;1.50;;
13708;SDS011;54933;51.908;7.730;2022-11-20T04:16:16;1.97;;;1.80;;
13708;SDS011;54933;51.908;7.730;2022-11-20T04:18:43;1.83;;;1.73;;
13708;SDS011;54933;51.908;7.730;2022-11-20T04:21:08;1.53;;;1.43;;
13708;SDS011;54933;51.908;7.730;2022-11-20T04:23:34;1.80;;;1.60;;
13708;SDS011;54933;51.908;7.730;2022-11-20T04:26:00;2.13;;;1.80;;
13708;SDS011;54933;51.908;7.730;2022-11-20T04:28:29;1.87;;;1.77;;
13708;SDS011;54933;51.908;7.730;2022-11-20T04:30:54;1.90;;;1.80;;
13708;SDS011;54933;51.908;7.730;2022-11-20T04:33:19;1.73;;;1.63;;
13708;SDS011;54933;51.908;7.730;2022-11-20T04:35:45;2.33;;;1.83;;
13708;SDS011;54933;51.908;7.730;2022-11-20T04:38:12;1.97;;;1.73;;
13708;SDS011;54933;51.908;7.730;2022-11-20T04:40:37;1.97;;;1.70;;
13708;SDS011;54933;51.908;7.730;2022-11-20T04:43:03;1.80;;;1.70;;
13708;SDS011;54933;51.908;7.730;2022-11-20T04:45:28;1.70;;;1.60;;
13708;SDS011;54933;51.908;7.730;2022-11-20T04:47:53;2.20;;;2.00;;
13708;SDS011;54933;51.908;7.730;2022-11-20T04:50:18;2.00;;;1.90;;
13708;SDS011;54933;51.908;7.730;2022-11-20T04:52:44;1.77;;;1.67;;
13708;SDS011;54933;51.908;7.730;2022-11-20T04:55:09;1.83;;;1.73;;
13708;SDS011;54933;51.908;7.730;2022-11-20T04:57:34;1.77;;;1.67;;
13708;SDS011;54933;51.908;7.730;2022-11-20T04:59:59;2.07;;;1.93;;
13708;SDS011;54933;51.908;7.730;2022-11-20T05:02:25;1.57;;;1.47;;
13708;SDS011;54933;51.908;7.730;2022-11-20T05:04:50;1.80;;;1.70;;
13708;SDS011;54933;51.908;7.730;2022-11-20T05:07:15;2.50;;;2.10;;
13708;SDS011;54933;51.908;7.730;2022-11-20T05:09:40;1.83;;;1.73;;
13708;SDS011;54933;51.908;7.730;2022-11-20T05:12:09;2.40;;;1.50;;
13708;SDS011;54933;51.908;7.730;2022-11-20T05:14:34;1.40;;;1.40;;
13708;SDS011;54933;51.908;7.730;2022-11-20T05:17:00;1.53;;;1.47;;
13708;SDS011;54933;51.908;7.730;2022-11-20T05:19:25;1.97;;;1.87;;
13708;SDS011;54933;51.908;7.730;2022-11-20T05:21:50;1.70;;;1.60;;
13708;SDS011;54933;51.908;7.730;2022-11-20T05:24:16;1.80;;;1.70;;
13708;SDS011;54933;51.908;7.730;2022-11-20T05:26:41;2.07;;;1.87;;
13708;SDS011;54933;51.908;7.730;2022-11-20T05:29:06;1.90;;;1.80;;
13708;SDS011;54933;51.908;7.730;2022-11-20T05:31:31;1.77;;;1.67;;
13708;SDS011;54933;51.908;7.730;2022-11-20T05:33:57;2.50;;;2.20;;
13708;SDS011;54933;51.908;7.730;2022-11-20T05:36:22;2.30;;;1.73;;
13708;SDS011;54933;51.908;7.730;2022-11-20T05:38:47;2.13;;;1.63;;
13708;SDS011;54933;51.908;7.730;2022-11-20T05:41:13;1.70;;;1.60;;
13708;SDS011;54933;51.908;7.730;2022-11-20T05:43:41;1.80;;;1.70;;
13708;SDS011;54933;51.908;7.730;2022-11-20T05:46:08;2.00;;;1.90;;
13708;SDS011;54933;51.908;7.730;2022-11-20T05:48:35;1.93;;;1.83;;
13708;SDS011;54933;51.908;7.730;2022-11-20T05:51:02;2.00;;;1.90;;
13708;SDS011;54933;51.908;7.730;2022-11-20T05:53:30;1.77;;;1.67;;
13708;SDS011;54933;51.908;7.730;2022-11-20T05:55:58;1.70;;;1.60;;
13708;SDS011;54933;51.908;7.730;2022-11-20T05:58:24;2.00;;;1.90;;
13708;SDS011;54933;51.908;7.730;2022-11-20T06:00:49;2.20;;;2.00;;
13708;SDS011;54933;51.908;7.730;2022-11-20T06:03:15;2.17;;;2.07;;
13708;SDS011;54933;51.908;7.730;2022-11-20T06:05:40;1.83;;;1.73;;
13708;SDS011;54933;51.908;7.730;2022-11-20T06:08:05;2.50;;;1.70;;
13708;SDS011;54933;51.908;7.730;2022-11-20T06:10:30;2.00;;;1.80;;
13708;SDS011;54933;51.908;7.730;2022-11-20T06:12:59;1.87;;;1.77;;
13708;SDS011;54933;51.908;7.730;2022-11-20T06:15:24;1.77;;;1.67;;
13708;SDS011;54933;51.908;7.730;2022-11-20T06:17:53;2.03;;;1.80;;
13708;SDS011;54933;51.908;7.730;2022-11-20T06:20:19;2.13;;;1.90;;
13708;SDS011;54933;51.908;7.730;2022-11-20T06:22:45;1.90;;;1.70;;
13708;SDS011;54933;51.908;7.730;2022-11-20T06:25:10;2.60;;;1.70;;
13708;SDS011;54933;51.908;7.730;2022-11-20T06:27:35;1.80;;;1.70;;
13708;SDS011;54933;51.908;7.730;2022-11-20T06:30:01;1.90;;;1.80;;
13708;SDS011;54933;51.908;7.730;2022-11-20T06:32:26;1.90;;;1.80;;
13708;SDS011;54933;51.908;7.730;2022-11-20T06:34:51;1.73;;;1.63;;
13708;SDS011;54933;51.908;7.730;2022-11-20T06:37:16;1.73;;;1.63;;
13708;SDS011;54933;51.908;7.730;2022-11-20T06:39:42;1.80;;;1.70;;
13708;SDS011;54933;51.908;7.730;2022-11-20T06:42:07;1.70;;;1.60;;
13708;SDS011;54933;51.908;7.730;2022-11-20T06:44:32;2.00;;;1.90;;
13708;SDS011;54933;51.908;7.730;2022-11-20T06:46:57;1.70;;;1.60;;
13708;SDS011;54933;51.908;7.730;2022-11-20T06:49:23;1.60;;;1.50;;
13708;SDS011;54933;51.908;7.730;2022-11-20T06:51:48;1.83;;;1.73;;
13708;SDS011;54933;51.908;7.730;2022-11-20T06:54:13;1.93;;;1.80;;
13708;SDS011;54933;51.908;7.730;2022-11-20T06:56:38;1.80;;;1.70;;
13708;SDS011;54933;51.908;7.730;2022-11-20T06:59:05;1.77;;;1.67;;
13708;SDS011;54933;51.908;7.730;2022-11-20T07:01:31;1.73;;;1.63;;
13708;SDS011;54933;51.908;7.730;2022-11-20T07:03:56;1.73;;;1.63;;
13708;SDS011;54933;51.908;7.730;2022-11-20T07:06:21;1.63;;;1.57;;
13708;SDS011;54933;51.908;7.730;2022-11-20T07:08:46;1.60;;;1.50;;
13708;SDS011;54933;51.908;7.730;2022-11-20T07:11:12;2.17;;;1.97;;
13708;SDS011;54933;51.908;7.730;2022-11-20T07:13:37;2.03;;;1.87;;
13708;SDS011;54933;51.908;7.730;2022-11-20T07:16:04;1.93;;;1.53;;
13708;SDS011;54933;51.908;7.730;2022-11-20T07:18:31;2.03;;;1.83;;
13708;SDS011;54933;51.908;7.730;2022-11-20T07:21:00;2.03;;;1.93;;
13708;SDS011;54933;51.908;7.730;2022-11-20T07:23:26;1.77;;;1.67;;
13708;SDS011;54933;51.908;7.730;2022-11-20T07:25:52;1.43;;;1.40;;
13708;SDS011;54933;51.908;7.730;2022-11-20T07:28:17;1.70;;;1.60;;
13708;SDS011;54933;51.908;7.730;2022-11-20T07:30:42;1.67;;;1.67;;
13708;SDS011;54933;51.908;7.730;2022-11-20T07:33:07;1.83;;;1.73;;
13708;SDS011;54933;51.908;7.730;2022-11-20T07:35:33;1.90;;;1.80;;
13708;SDS011;54933;51.908;7.730;2022-11-20T07:37:58;1.97;;;1.53;;
13708;SDS011;54933;51.908;7.730;2022-11-20T07:40:23;2.30;;;1.87;;
13708;SDS011;54933;51.908;7.730;2022-11-20T07:45:15;2.10;;;1.90;;
13708;SDS011;54933;51.908;7.730;2022-11-20T07:47:40;1.50;;;1.40;;
13708;SDS011;54933;51.908;7.730;2022-11-20T07:50:05;1.80;;;1.70;;
13708;SDS011;54933;51.908;7.730;2022-11-20T07:52:32;1.60;;;1.50;;
13708;SDS011;54933;51.908;7.730;2022-11-20T07:54:57;1.77;;;1.67;;
13708;SDS011;54933;51.908;7.730;2022-11-20T07:57:22;2.20;;;1.73;;
13708;SDS011;54933;51.908;7.730;2022-11-20T07:59:48;1.80;;;1.70;;
13708;SDS011;54933;51.908;7.730;2022-11-20T08:02:13;1.97;;;1.87;;
13708;SDS011;54933;51.908;7.730;2022-11-20T08:04:38;1.60;;;1.50;;
13708;SDS011;54933;51.908;7.730;2022-11-20T08:07:03;1.73;;;1.47;;
13708;SDS011;54933;51.908;7.730;2022-11-20T08:09:29;2.87;;;2.20;;
13708;SDS011;54933;51.908;7.730;2022-11-20T08:11:54;1.60;;;1.50;;
13708;SDS011;54933;51.908;7.730;2022-11-20T08:14:38;1.53;;;1.40;;
13708;SDS011;54933;51.908;7.730;2022-11-20T08:17:03;2.10;;;1.90;;
13708;SDS011;54933;51.908;7.730;2022-11-20T08:19:28;3.17;;;1.57;;
13708;SDS011;54933;51.908;7.730;2022-11-20T08:21:54;1.77;;;1.40;;
13708;SDS011;54933;51.908;7.730;2022-11-20T08:24:20;1.60;;;1.50;;
13708;SDS011;54933;51.908;7.730;2022-11-20T08:26:45;2.33;;;1.73;;
13708;SDS011;54933;51.908;7.730;2022-11-20T08:29:10;1.97;;;1.80;;
13708;SDS011;54933;51.908;7.730;2022-11-20T08:31:36;2.70;;;2.10;;
13708;SDS011;54933;51.908;7.730;2022-11-20T08:34:01;2.40;;;1.77;;
13708;SDS011;54933;51.908;7.730;2022-11-20T08:36:26;1.90;;;1.40;;
13708;SDS011;54933;51.908;7.730;2022-11-20T08:38:52;2.97;;;1.57;;
13708;SDS011;54933;51.908;7.730;2022-11-20T08:41:19;2.90;;;1.73;;
13708;SDS011;54933;51.908;7.730;2022-11-20T08:43:58;7.80;;;1.80;;
13708;SDS011;54933;51.908;7.730;2022-11-20T08:46:33;2.13;;;1.93;;
13708;SDS011;54933;51.908;7.730;2022-11-20T08:49:01;1.50;;;1.43;;
13708;SDS011;54933;51.908;7.730;2022-11-20T08:51:26;3.93;;;1.87;;
13708;SDS011;54933;51.908;7.730;2022-11-20T08:53:51;1.50;;;1.40;;
13708;SDS011;54933;51.908;7.730;2022-11-20T08:56:17;2.40;;;1.63;;
13708;SDS011;54933;51.908;7.730;2022-11-20T08:58:42;2.10;;;1.50;;
13708;SDS011;54933;51.908;7.730;2022-11-20T09:01:08;4.13;;;1.87;;
13708;SDS011;54933;51.908;7.730;2022-11-20T09:03:34;2.17;;;1.77;;
13708;SDS011;54933;51.908;7.730;2022-11-20T09:06:00;4.90;;;2.07;;
13708;SDS011;54933;51.908;7.730;2022-11-20T09:08:28;3.90;;;1.60;;
13708;SDS011;54933;51.908;7.730;2022-11-20T09:10:54;2.10;;;2.00;;
13708;SDS011;54933;51.908;7.730;2022-11-20T09:13:21;1.67;;;1.57;;
13708;SDS011;54933;51.908;7.730;2022-11-20T09:15:47;6.40;;;2.50;;
13708;SDS011;54933;51.908;7.730;2022-11-20T09:18:12;1.60;;;1.50;;
13708;SDS011;54933;51.908;7.730;2022-11-20T09:20:37;3.60;;;1.90;;
13708;SDS011;54933;51.908;7.730;2022-11-20T09:23:03;8.97;;;1.83;;
13708;SDS011;54933;51.908;7.730;2022-11-20T09:25:28;3.90;;;1.77;;
13708;SDS011;54933;51.908;7.730;2022-11-20T09:27:59;3.40;;;1.80;;
13708;SDS011;54933;51.908;7.730;2022-11-20T09:30:24;2.73;;;1.67;;
13708;SDS011;54933;51.908;7.730;2022-11-20T09:32:50;1.80;;;1.67;;
13708;SDS011;54933;51.908;7.730;2022-11-20T09:35:15;2.57;;;1.70;;
13708;SDS011;54933;51.908;7.730;2022-11-20T09:37:40;2.40;;;1.80;;
13708;SDS011;54933;51.908;7.730;2022-11-20T09:40:06;4.50;;;2.00;;
13708;SDS011;54933;51.908;7.730;2022-11-20T09:51:53;2.37;;;1.70;;
13708;SDS011;54933;51.908;7.730;2022-11-20T09:54:26;3.90;;;1.70;;
13708;SDS011;54933;51.908;7.730;2022-11-20T09:56:59;6.67;;;2.50;;
13708;SDS011;54933;51.908;7.730;2022-11-20T09:59:32;7.50;;;2.50;;
13708;SDS011;54933;51.908;7.730;2022-11-20T10:01:59;4.33;;;2.40;;
13708;SDS011;54933;51.908;7.730;2022-11-20T10:04:26;3.27;;;1.90;;
13708;SDS011;54933;51.908;7.730;2022-11-20T10:07:00;4.20;;;1.77;;
13708;SDS011;54933;51.908;7.730;2022-11-20T10:09:40;8.83;;;2.47;;
13708;SDS011;54933;51.908;7.730;2022-11-20T10:12:18;5.93;;;1.77;;
13708;SDS011;54933;51.908;7.730;2022-11-20T10:15:06;2.80;;;1.60;;
13708;SDS011;54933;51.908;7.730;2022-11-20T10:17:59;1.70;;;1.50;;
13708;SDS011;54933;51.908;7.730;2022-11-20T10:25:48;5.43;;;1.83;;
13708;SDS011;54933;51.908;7.730;2022-11-20T10:28:25;9.80;;;2.40;;
13708;SDS011;54933;51.908;7.730;2022-11-20T10:31:11;41.97;;;5.17;;
13708;SDS011;54933;51.908;7.730;2022-11-20T10:33:56;37.73;;;4.03;;
13708;SDS011;54933;51.908;7.730;2022-11-20T10:36:33;26.10;;;3.23;;
13708;SDS011;54933;51.908;7.730;2022-11-20T10:41:57;44.43;;;3.17;;
13708;SDS011;54933;51.908;7.730;2022-11-20T10:44:27;26.30;;;3.17;;
13708;SDS011;54933;51.908;7.730;2022-11-20T10:47:16;29.67;;;3.80;;
13708;SDS011;54933;51.908;7.730;2022-11-20T10:49:44;16.90;;;2.77;;
13708;SDS011;54933;51.908;7.730;2022-11-20T11:00:50;30.57;;;3.10;;
13708;SDS011;54933;51.908;7.730;2022-11-20T11:03:28;8.17;;;2.70;;
13708;SDS011;54933;51.908;7.730;2022-11-20T11:05:58;8.93;;;2.47;;
13708;SDS011;54933;51.908;7.730;2022-11-20T11:08:39;9.73;;;2.43;;
13708;SDS011;54933;51.908;7.730;2022-11-20T11:11:22;11.87;;;2.70;;
13708;SDS011;54933;51.908;7.730;2022-11-20T11:13:51;13.63;;;2.57;;
13708;SDS011;54933;51.908;7.730;2022-11-20T11:16:26;8.10;;;2.30;;
13708;SDS011;54933;51.908;7.730;2022-11-20T11:19:03;6.30;;;1.90;;
13708;SDS011;54933;51.908;7.730;2022-11-20T11:21:29;13.40;;;2.03;;
13708;SDS011;54933;51.908;7.730;2022-11-20T11:23:59;7.83;;;2.37;;
13708;SDS011;54933;51.908;7.730;2022-11-20T11:26:26;7.63;;;2.30;;
13708;SDS011;54933;51.908;7.730;2022-11-20T11:28:52;5.00;;;2.07;;
13708;SDS011;54933;51.908;7.730;2022-11-20T11:31:23;10.83;;;2.03;;
13708;SDS011;54933;51.908;7.730;2022-11-20T11:33:49;7.30;;;2.57;;
13708;SDS011;54933;51.908;7.730;2022-11-20T11:36:23;4.27;;;1.93;;
13708;SDS011;54933;51.908;7.730;2022-11-20T11:38:50;2.97;;;2.17;;
13708;SDS011;54933;51.908;7.730;2022-11-20T11:41:20;4.77;;;1.90;;
13708;SDS011;54933;51.908;7.730;2022-11-20T11:43:52;5.30;;;1.90;;
13708;SDS011;54933;51.908;7.730;2022-11-20T11:46:39;4.43;;;1.80;;
13708;SDS011;54933;51.908;7.730;2022-11-20T11:49:15;4.97;;;2.17;;
13708;SDS011;54933;51.908;7.730;2022-11-20T11:51:47;5.93;;;1.87;;
13708;SDS011;54933;51.908;7.730;2022-11-20T11:54:30;5.23;;;2.20;;
13708;SDS011;54933;51.908;7.730;2022-11-20T11:56:58;2.27;;;1.90;;
13708;SDS011;54933;51.908;7.730;2022-11-20T11:59:28;5.20;;;1.73;;
13708;SDS011;54933;51.908;7.730;2022-11-20T12:02:13;4.27;;;1.93;;
13708;SDS011;54933;51.908;7.730;2022-11-20T12:04:54;2.33;;;1.60;;
13708;SDS011;54933;51.908;7.730;2022-11-20T12:07:43;3.93;;;1.90;;
13708;SDS011;54933;51.908;7.730;2022-11-20T12:13:18;6.93;;;1.70;;
13708;SDS011;54933;51.908;7.730;2022-11-20T12:15:50;1.90;;;1.50;;
13708;SDS011;54933;51.908;7.730;2022-11-20T12:18:20;2.13;;;1.77;;
13708;SDS011;54933;51.908;7.730;2022-11-20T12:21:09;2.23;;;1.47;;
13708;SDS011;54933;51.908;7.730;2022-11-20T12:23:43;3.23;;;1.70;;
13708;SDS011;54933;51.908;7.730;2022-11-20T12:34:43;3.37;;;1.63;;
13708;SDS011;54933;51.908;7.730;2022-11-20T12:37:21;2.70;;;1.40;;
13708;SDS011;54933;51.908;7.730;2022-11-20T12:39:54;1.57;;;1.47;;
13708;SDS011;54933;51.908;7.730;2022-11-20T12:48:33;3.03;;;1.60;;
13708;SDS011;54933;51.908;7.730;2022-11-20T12:53:48;1.40;;;1.30;;
13708;SDS011;54933;51.908;7.730;2022-11-20T12:56:42;2.53;;;1.30;;
13708;SDS011;54933;51.908;7.730;2022-11-20T13:08:23;1.83;;;1.57;;
13708;SDS011;54933;51.908;7.730;2022-11-20T13:10:58;1.27;;;1.27;;
13708;SDS011;54933;51.908;7.730;2022-11-20T13:13:45;2.03;;;1.23;;
13708;SDS011;54933;51.908;7.730;2022-11-20T13:16:39;5.47;;;1.40;;
13708;SDS011;54933;51.908;7.730;2022-11-20T13:19:13;1.43;;;1.37;;
13708;SDS011;54933;51.908;7.730;2022-11-20T13:21:41;2.00;;;1.30;;
13708;SDS011;54933;51.908;7.730;2022-11-20T13:26:43;1.40;;;1.20;;
13708;SDS011;54933;51.908;7.730;2022-11-20T13:29:11;1.50;;;1.40;;
13708;SDS011;54933;51.908;7.730;2022-11-20T13:31:42;1.50;;;1.40;;
13708;SDS011;54933;51.908;7.730;2022-11-20T13:34:11;1.43;;;1.33;;
13708;SDS011;54933;51.908;7.730;2022-11-20T13:36:51;3.13;;;1.37;;
13708;SDS011;54933;51.908;7.730;2022-11-20T13:39:26;1.73;;;1.43;;
13708;SDS011;54933;51.908;7.730;2022-11-20T13:41:55;1.93;;;1.57;;
13708;SDS011;54933;51.908;7.730;2022-11-20T13:44:26;1.47;;;1.30;;
13708;SDS011;54933;51.908;7.730;2022-11-20T13:46:52;2.77;;;1.50;;
13708;SDS011;54933;51.908;7.730;2022-11-20T13:49:18;2.13;;;1.80;;
13708;SDS011;54933;51.908;7.730;2022-11-20T13:51:50;2.87;;;1.50;;
13708;SDS011;54933;51.908;7.730;2022-11-20T13:54:39;2.10;;;1.53;;
13708;SDS011;54933;51.908;7.730;2022-11-20T14:00:14;5.63;;;1.60;;
13708;SDS011;54933;51.908;7.730;2022-11-20T14:02:41;3.37;;;1.90;;
13708;SDS011;54933;51.908;7.730;2022-11-20T14:05:13;4.97;;;1.80;;
13708;SDS011;54933;51.908;7.730;2022-11-20T14:07:45;3.30;;;1.80;;
13708;SDS011;54933;51.908;7.730;2022-11-20T14:10:19;1.60;;;1.50;;
13708;SDS011;54933;51.908;7.730;2022-11-20T14:12:46;3.53;;;1.37;;
13708;SDS011;54933;51.908;7.730;2022-11-20T14:15:23;3.90;;;1.80;;
13708;SDS011;54933;51.908;7.730;2022-11-20T14:17:56;4.83;;;2.30;;
13708;SDS011;54933;51.908;7.730;2022-11-20T14:20:23;1.70;;;1.60;;
13708;SDS011;54933;51.908;7.730;2022-11-20T14:22:54;2.67;;;1.90;;
13708;SDS011;54933;51.908;7.730;2022-11-20T14:25:21;2.33;;;2.13;;
13708;SDS011;54933;51.908;7.730;2022-11-20T14:27:52;6.77;;;2.13;;
13708;SDS011;54933;51.908;7.730;2022-11-20T14:30:20;19.07;;;2.40;;
13708;SDS011;54933;51.908;7.730;2022-11-20T14:32:49;4.17;;;1.90;;
13708;SDS011;54933;51.908;7.730;2022-11-20T14:35:20;6.77;;;2.50;;
13708;SDS011;54933;51.908;7.730;2022-11-20T14:37:49;3.30;;;2.50;;
13708;SDS011;54933;51.908;7.730;2022-11-20T14:40:34;4.53;;;1.97;;
13708;SDS011;54933;51.908;7.730;2022-11-20T14:43:01;4.97;;;2.23;;
13708;SDS011;54933;51.908;7.730;2022-11-20T14:45:41;5.53;;;2.27;;
13708;SDS011;54933;51.908;7.730;2022-11-20T14:48:08;2.40;;;2.13;;
13708;SDS011;54933;51.908;7.730;2022-11-20T14:50:35;3.20;;;1.73;;
13708;SDS011;54933;51.908;7.730;2022-11-20T14:53:00;2.47;;;2.03;;
13708;SDS011;54933;51.908;7.730;2022-11-20T14:57:57;6.00;;;2.13;;
13708;SDS011;54933;51.908;7.730;2022-11-20T15:00:24;2.07;;;1.93;;
13708;SDS011;54933;51.908;7.730;2022-11-20T15:02:50;2.83;;;1.80;;
13708;SDS011;54933;51.908;7.730;2022-11-20T15:05:18;3.07;;;2.23;;
13708;SDS011;54933;51.908;7.730;2022-11-20T15:07:49;1.57;;;1.47;;
13708;SDS011;54933;51.908;7.730;2022-11-20T15:10:21;2.20;;;2.00;;
13708;SDS011;54933;51.908;7.730;2022-11-20T15:12:55;3.10;;;1.90;;
13708;SDS011;54933;51.908;7.730;2022-11-20T15:15:43;2.10;;;1.67;;
13708;SDS011;54933;51.908;7.730;2022-11-20T15:18:13;2.50;;;1.77;;
13708;SDS011;54933;51.908;7.730;2022-11-20T15:20:40;2.10;;;2.00;;
13708;SDS011;54933;51.908;7.730;2022-11-20T15:23:10;1.90;;;1.60;;
13708;SDS011;54933;51.908;7.730;2022-11-20T15:25:37;1.80;;;1.70;;
13708;SDS011;54933;51.908;7.730;2022-11-20T15:28:04;1.77;;;1.67;;
13708;SDS011;54933;51.908;7.730;2022-11-20T15:30:37;4.10;;;1.87;;
13708;SDS011;54933;51.908;7.730;2022-11-20T15:33:02;3.73;;;1.90;;
13708;SDS011;54933;51.908;7.730;2022-11-20T15:35:28;3.97;;;2.23;;
13708;SDS011;54933;51.908;7.730;2022-11-20T15:37:53;2.20;;;2.00;;
13708;SDS011;54933;51.908;7.730;2022-11-20T15:40:18;2.80;;;2.10;;
13708;SDS011;54933;51.908;7.730;2022-11-20T15:42:43;2.03;;;1.83;;
13708;SDS011;54933;51.908;7.730;2022-11-20T15:45:27;5.00;;;2.07;;
13708;SDS011;54933;51.908;7.730;2022-11-20T15:47:55;2.07;;;1.97;;
13708;SDS011;54933;51.908;7.730;2022-11-20T15:50:21;2.17;;;1.97;;
13708;SDS011;54933;51.908;7.730;2022-11-20T15:52:46;4.00;;;2.07;;
13708;SDS011;54933;51.908;7.730;2022-11-20T15:55:12;1.80;;;1.70;;
13708;SDS011;54933;51.908;7.730;2022-11-20T15:57:37;2.00;;;1.60;;
13708;SDS011;54933;51.908;7.730;2022-11-20T16:00:02;4.00;;;1.90;;
13708;SDS011;54933;51.908;7.730;2022-11-20T16:02:28;3.13;;;1.93;;
13708;SDS011;54933;51.908;7.730;2022-11-20T16:04:53;2.23;;;1.90;;
13708;SDS011;54933;51.908;7.730;2022-11-20T16:07:19;2.30;;;2.00;;
13708;SDS011;54933;51.908;7.730;2022-11-20T16:09:44;2.27;;;1.70;;